createdAt,value
2023-02-11T00:01:13.573Z,26.80
2023-02-11T00:03:40.282Z,25.23
2023-02-11T00:06:09.491Z,26.13
2023-02-11T00:08:36.417Z,25.93
2023-02-11T00:11:04.646Z,25.17
2023-02-11T00:13:31.600Z,25.50
2023-02-11T00:15:58.142Z,24.73
2023-02-11T00:18:24.914Z,25.43
2023-02-11T00:20:51.471Z,26.83
2023-02-11T00:23:18.136Z,25.47
2023-02-11T00:25:45.573Z,26.50
2023-02-11T00:28:12.837Z,25.57
2023-02-11T00:30:40.960Z,25.37
2023-02-11T00:33:08.280Z,25.30
2023-02-11T00:35:38.047Z,26.00
2023-02-11T00:38:04.720Z,26.33
2023-02-11T00:40:31.323Z,25.60
2023-02-11T00:42:57.887Z,25.60
2023-02-11T00:45:24.465Z,26.20
2023-02-11T00:47:51.085Z,25.33
2023-02-11T00:50:17.781Z,24.07
2023-02-11T00:52:44.432Z,25.47
2023-02-11T00:55:11.019Z,25.50
2023-02-11T00:57:37.626Z,25.20
2023-02-11T01:00:06.953Z,25.87
2023-02-11T01:02:33.896Z,26.17
2023-02-11T01:05:01.056Z,25.37
2023-02-11T01:07:28.709Z,25.53
2023-02-11T01:09:55.646Z,25.33
2023-02-11T01:12:23.258Z,25.03
2023-02-11T01:14:49.867Z,24.30
2023-02-11T01:17:19.343Z,24.07
2023-02-11T01:19:45.977Z,24.73
2023-02-11T01:22:12.668Z,25.03
2023-02-11T01:24:39.271Z,23.77
2023-02-11T01:27:07.928Z,24.83
2023-02-11T01:29:34.678Z,25.10
2023-02-11T01:32:01.447Z,24.20
2023-02-11T01:34:28.346Z,25.00
2023-02-11T01:36:59.037Z,24.30
2023-02-11T01:39:28.096Z,23.53
2023-02-11T01:41:55.108Z,23.93
2023-02-11T01:44:34.518Z,24.37
2023-02-11T01:47:01.744Z,24.50
2023-02-11T01:49:31.863Z,25.13
2023-02-11T01:52:19.698Z,24.63
2023-02-11T01:55:09.948Z,24.90
2023-02-11T01:57:40.252Z,23.30
2023-02-11T02:00:15.621Z,24.70
2023-02-11T02:03:22.608Z,23.40
2023-02-11T02:06:06.349Z,22.87
2023-02-11T02:08:50.359Z,23.77
2023-02-11T02:11:17.096Z,25.27
2023-02-11T02:13:44.860Z,23.77
2023-02-11T02:16:17.907Z,25.03
2023-02-11T02:19:03.149Z,24.40
2023-02-11T02:21:32.419Z,25.13
2023-02-11T02:24:27.312Z,24.87
2023-02-11T02:27:03.215Z,25.43
2023-02-11T02:29:47.892Z,23.37
2023-02-11T02:32:31.934Z,24.73
2023-02-11T02:35:10.725Z,25.17
2023-02-11T02:37:55.527Z,24.77
2023-02-11T02:40:32.381Z,25.13
2023-02-11T02:43:01.126Z,25.07
2023-02-11T02:45:27.755Z,25.17
2023-02-11T02:47:54.449Z,24.37
2023-02-11T02:50:30.143Z,24.23
2023-02-11T02:53:15.781Z,26.10
2023-02-11T02:56:17.537Z,25.63
2023-02-11T02:58:53.109Z,24.73
2023-02-11T03:01:49.308Z,25.23
2023-02-11T03:04:36.235Z,23.90
2023-02-11T03:07:18.077Z,24.63
2023-02-11T03:10:04.040Z,25.30
2023-02-11T03:12:33.303Z,24.20
2023-02-11T03:15:02.664Z,26.67
2023-02-11T03:17:31.691Z,26.77
2023-02-11T03:20:11.655Z,26.27
2023-02-11T03:22:55.734Z,25.93
2023-02-11T03:25:30.121Z,25.67
2023-02-11T03:28:05.717Z,26.40
2023-02-11T03:30:41.691Z,26.17
2023-02-11T03:33:22.541Z,27.40
2023-02-11T03:35:56.602Z,27.07
2023-02-11T03:38:29.625Z,27.37
2023-02-11T03:40:58.430Z,25.80
2023-02-11T03:43:38.807Z,27.53
2023-02-11T03:46:06.721Z,27.07
2023-02-11T03:48:39.466Z,27.63
2023-02-11T03:51:09.258Z,27.63
2023-02-11T03:53:37.644Z,26.53
2023-02-11T03:56:08.849Z,28.27
2023-02-11T03:58:35.434Z,27.47
2023-02-11T04:01:02.805Z,27.07
2023-02-11T04:03:29.564Z,28.07
2023-02-11T04:05:56.193Z,28.53
2023-02-11T04:08:22.741Z,28.10
2023-02-11T04:10:49.340Z,28.27
2023-02-11T04:13:15.920Z,28.40
2023-02-11T04:15:42.549Z,27.30
2023-02-11T04:18:09.097Z,28.13
2023-02-11T04:20:35.678Z,28.87
2023-02-11T04:23:02.292Z,28.77
2023-02-11T04:25:29.221Z,29.53
2023-02-11T04:27:55.939Z,29.33
2023-02-11T04:30:22.594Z,29.93
2023-02-11T04:32:49.166Z,29.03
2023-02-11T04:35:15.818Z,30.77
2023-02-11T04:37:42.412Z,29.97
2023-02-11T04:40:09.603Z,29.90
2023-02-11T04:42:36.161Z,30.47
2023-02-11T04:45:03.087Z,31.87
2023-02-11T04:47:29.769Z,31.47
2023-02-11T04:49:56.388Z,31.17
2023-02-11T04:52:22.957Z,31.33
2023-02-11T04:54:49.578Z,30.10
2023-02-11T04:57:16.291Z,30.30
2023-02-11T04:59:42.923Z,31.10
2023-02-11T05:02:09.502Z,31.03
2023-02-11T05:04:36.166Z,30.00
2023-02-11T05:07:02.778Z,29.37
2023-02-11T05:09:29.392Z,28.97
2023-02-11T05:11:56.204Z,29.80
2023-02-11T05:14:22.757Z,28.30
2023-02-11T05:16:49.364Z,31.10
2023-02-11T05:19:16.286Z,29.73
2023-02-11T05:21:56.705Z,29.07
2023-02-11T05:24:28.238Z,30.23
2023-02-11T05:26:54.840Z,29.93
2023-02-11T05:29:21.485Z,30.70
2023-02-11T05:31:48.114Z,29.70
2023-02-11T05:34:14.712Z,29.97
2023-02-11T05:36:41.604Z,30.87
2023-02-11T05:39:08.329Z,28.63
2023-02-11T05:41:34.935Z,29.20
2023-02-11T05:44:01.600Z,30.03
2023-02-11T05:46:28.222Z,29.20
2023-02-11T05:48:56.606Z,28.23
2023-02-11T05:51:25.266Z,30.10
2023-02-11T05:53:53.572Z,28.43
2023-02-11T05:56:20.217Z,28.93
2023-02-11T05:58:46.944Z,29.37
2023-02-11T06:01:13.565Z,28.20
2023-02-11T06:03:40.307Z,25.27
2023-02-11T06:06:13.241Z,28.93
2023-02-11T06:08:40.191Z,29.60
2023-02-11T06:11:06.984Z,28.53
2023-02-11T06:13:33.600Z,27.67
2023-02-11T06:16:01.925Z,28.60
2023-02-11T06:18:29.535Z,28.23
2023-02-11T06:20:56.689Z,28.30
2023-02-11T06:23:23.345Z,26.63
2023-02-11T06:25:50.786Z,26.67
2023-02-11T06:28:19.256Z,27.17
2023-02-11T06:30:45.920Z,26.80
2023-02-11T06:33:12.490Z,27.70
2023-02-11T06:35:39.657Z,27.43
2023-02-11T06:38:06.227Z,26.50
2023-02-11T06:40:32.808Z,27.93
2023-02-11T06:42:59.408Z,27.03
2023-02-11T06:45:26.040Z,26.37
2023-02-11T06:47:53.061Z,26.87
2023-02-11T06:50:19.737Z,26.83
2023-02-11T06:52:46.336Z,26.57
2023-02-11T06:55:12.906Z,25.70
2023-02-11T06:57:39.571Z,26.53
2023-02-11T07:00:06.752Z,26.23
2023-02-11T07:02:33.416Z,26.70
2023-02-11T07:05:00.022Z,28.00
2023-02-11T07:07:27.525Z,25.73
2023-02-11T07:09:54.269Z,27.10
2023-02-11T07:12:20.917Z,28.70
2023-02-11T07:14:47.484Z,28.17
2023-02-11T07:17:14.132Z,25.80
2023-02-11T07:19:40.808Z,26.27
2023-02-11T07:22:07.429Z,23.97
2023-02-11T07:24:34.008Z,25.37
2023-02-11T07:27:00.613Z,26.47
2023-02-11T07:29:27.215Z,24.97
2023-02-11T07:31:53.942Z,24.97
2023-02-11T07:34:20.649Z,25.13
2023-02-11T07:36:48.973Z,24.50
2023-02-11T07:39:15.636Z,24.87
2023-02-11T07:41:42.982Z,24.07
2023-02-11T07:44:10.108Z,23.27
2023-02-11T07:46:36.881Z,23.47
2023-02-11T07:49:03.685Z,23.53
2023-02-11T07:51:31.390Z,25.33
2023-02-11T07:53:59.515Z,22.03
2023-02-11T07:56:26.443Z,25.70
2023-02-11T07:58:53.342Z,23.90
2023-02-11T08:01:24.935Z,22.43
2023-02-11T08:03:52.539Z,21.70
2023-02-11T08:06:21.017Z,21.57
2023-02-11T08:08:48.327Z,21.57
2023-02-11T08:11:22.269Z,20.17
2023-02-11T08:13:49.433Z,21.63
2023-02-11T08:16:34.617Z,21.77
2023-02-11T08:19:03.937Z,22.10
2023-02-11T08:21:30.864Z,22.73
2023-02-11T08:23:57.559Z,22.83
2023-02-11T08:26:28.382Z,23.63
2023-02-11T08:28:56.888Z,22.73
2023-02-11T08:31:30.009Z,23.03
2023-02-11T08:33:58.257Z,23.10
2023-02-11T08:36:28.526Z,22.33
2023-02-11T08:39:08.579Z,24.20
2023-02-11T08:41:42.815Z,24.53
2023-02-11T08:44:09.397Z,22.77
2023-02-11T08:46:36.304Z,23.23
2023-02-11T08:49:02.911Z,24.10
2023-02-11T08:51:31.546Z,22.47
2023-02-11T08:53:58.977Z,22.20
2023-02-11T08:56:26.490Z,22.27
2023-02-11T08:58:53.304Z,22.23
2023-02-11T09:01:23.173Z,23.33
2023-02-11T09:03:50.191Z,25.00
2023-02-11T09:06:18.598Z,24.53
2023-02-11T09:08:49.395Z,25.77
2023-02-11T09:11:19.561Z,24.27
2023-02-11T09:13:47.035Z,23.87
2023-02-11T09:16:23.644Z,25.27
2023-02-11T09:18:50.978Z,23.87
2023-02-11T09:21:19.129Z,24.80
2023-02-11T09:23:47.862Z,29.43
2023-02-11T09:26:16.002Z,28.93
2023-02-11T09:28:43.296Z,23.27
2023-02-11T09:31:12.340Z,25.10
2023-02-11T09:33:42.181Z,25.10
2023-02-11T09:36:09.163Z,23.93
2023-02-11T09:38:35.762Z,22.53
2023-02-11T09:41:07.555Z,23.60
2023-02-11T09:43:46.543Z,22.77
2023-02-11T09:46:17.509Z,23.57
2023-02-11T09:48:47.261Z,23.20
2023-02-11T09:52:03.477Z,23.43
2023-02-11T09:54:54.634Z,22.40
2023-02-11T09:57:28.559Z,22.73
2023-02-11T09:59:56.976Z,21.70
2023-02-11T10:02:44.985Z,21.57
2023-02-11T10:05:33.675Z,19.50
2023-02-11T10:08:14.103Z,20.67
2023-02-11T10:11:02.413Z,19.23
2023-02-11T10:13:55.174Z,18.73
2023-02-11T10:16:27.838Z,18.77
2023-02-11T10:19:11.284Z,30.17
2023-02-11T10:21:58.790Z,18.70
2023-02-11T10:24:25.619Z,18.17
2023-02-11T10:26:52.558Z,20.77
2023-02-11T10:29:38.648Z,19.47
2023-02-11T10:32:16.268Z,18.47
2023-02-11T10:34:42.941Z,17.07
2023-02-11T10:37:13.579Z,17.37
2023-02-11T10:39:40.877Z,16.97
2023-02-11T10:42:12.475Z,15.83
2023-02-11T10:44:48.572Z,16.20
2023-02-11T10:47:22.345Z,13.80
2023-02-11T10:49:49.303Z,17.30
2023-02-11T10:52:25.006Z,17.23
2023-02-11T10:55:02.208Z,15.10
2023-02-11T10:57:36.350Z,17.07
2023-02-11T11:00:20.051Z,16.93
2023-02-11T11:02:54.492Z,15.70
2023-02-11T11:05:28.492Z,14.67
2023-02-11T11:07:58.295Z,15.20
2023-02-11T11:10:34.367Z,15.13
2023-02-11T11:13:01.108Z,15.03
2023-02-11T11:15:31.890Z,13.90
2023-02-11T11:18:23.537Z,15.30
2023-02-11T11:21:27.033Z,14.27
2023-02-11T11:23:59.465Z,15.00
2023-02-11T11:26:40.718Z,17.40
2023-02-11T11:29:16.375Z,22.03
2023-02-11T11:31:56.930Z,17.97
2023-02-11T11:34:32.683Z,17.30
2023-02-11T11:37:01.889Z,17.40
2023-02-11T11:39:33.959Z,17.10
2023-02-11T11:42:05.488Z,16.23
2023-02-11T11:44:37.228Z,16.13
2023-02-11T11:47:18.502Z,17.23
2023-02-11T11:49:50.909Z,16.93
2023-02-11T11:52:39.679Z,16.33
2023-02-11T11:55:20.095Z,16.50
2023-02-11T11:57:47.689Z,15.07
2023-02-11T12:00:40.722Z,15.67
2023-02-11T12:03:18.810Z,17.00
2023-02-11T12:05:55.615Z,16.60
2023-02-11T12:08:51.073Z,16.27
2023-02-11T12:11:34.724Z,17.03
2023-02-11T12:14:09.918Z,16.03
2023-02-11T12:16:45.426Z,15.77
2023-02-11T12:19:12.095Z,15.80
2023-02-11T12:21:38.628Z,17.13
2023-02-11T12:24:05.641Z,16.53
2023-02-11T12:26:41.012Z,15.93
2023-02-11T12:29:29.415Z,16.57
2023-02-11T12:32:14.478Z,15.80
2023-02-11T12:35:01.612Z,14.70
2023-02-11T12:37:37.029Z,14.40
2023-02-11T12:40:32.582Z,15.30
2023-02-11T12:43:17.271Z,15.97
2023-02-11T12:45:46.730Z,15.10
2023-02-11T12:48:35.890Z,18.63
2023-02-11T12:51:39.747Z,18.57
2023-02-11T12:54:43.466Z,15.73
2023-02-11T12:57:28.364Z,16.63
2023-02-11T13:00:24.869Z,15.70
2023-02-11T13:03:28.668Z,16.70
2023-02-11T13:06:00.941Z,14.53
2023-02-11T13:08:34.151Z,15.93
2023-02-11T13:11:05.939Z,15.93
2023-02-11T13:13:46.291Z,15.97
2023-02-11T13:16:36.551Z,16.00
2023-02-11T13:19:19.700Z,15.07
2023-02-11T13:21:55.990Z,15.10
2023-02-11T13:24:49.118Z,14.90
2023-02-11T13:27:58.677Z,15.33
2023-02-11T13:30:39.200Z,15.77
2023-02-11T13:33:16.433Z,14.20
2023-02-11T13:35:49.633Z,14.97
2023-02-11T13:38:31.200Z,15.93
2023-02-11T13:41:14.495Z,15.73
2023-02-11T13:43:41.692Z,15.53
2023-02-11T13:46:12.107Z,14.53
2023-02-11T13:48:52.685Z,14.47
2023-02-11T13:51:39.114Z,16.40
2023-02-11T13:54:18.711Z,16.30
2023-02-11T13:56:46.318Z,18.07
2023-02-11T13:59:24.906Z,17.50
2023-02-11T14:02:11.461Z,17.30
2023-02-11T14:05:22.763Z,15.70
2023-02-11T14:08:29.474Z,16.10
2023-02-11T14:11:12.959Z,15.93
2023-02-11T14:13:48.453Z,15.73
2023-02-11T14:16:31.535Z,15.57
2023-02-11T14:19:00.183Z,16.50
2023-02-11T14:21:29.712Z,17.00
2023-02-11T14:24:02.020Z,16.17
2023-02-11T14:26:34.711Z,15.40
2023-02-11T14:29:20.289Z,15.50
2023-02-11T14:31:59.479Z,16.03
2023-02-11T14:34:56.970Z,15.90
2023-02-11T14:38:00.883Z,16.03
2023-02-11T14:40:33.445Z,17.87
2023-02-11T14:43:13.510Z,17.57
2023-02-11T14:45:41.148Z,17.27
2023-02-11T14:48:18.002Z,19.57
2023-02-11T14:51:11.328Z,17.40
2023-02-11T14:53:44.018Z,15.93
2023-02-11T14:56:31.066Z,16.43
2023-02-11T14:58:58.269Z,17.47
2023-02-11T15:01:37.956Z,20.17
2023-02-11T15:04:21.593Z,16.77
2023-02-11T15:06:52.122Z,15.80
2023-02-11T15:09:25.515Z,17.23
2023-02-11T15:11:53.215Z,20.23
2023-02-11T15:14:32.686Z,18.10
2023-02-11T15:17:08.794Z,17.13
2023-02-11T15:19:39.666Z,17.30
2023-02-11T15:22:18.632Z,22.23
2023-02-11T15:24:45.317Z,20.67
2023-02-11T15:27:18.513Z,16.80
2023-02-11T15:29:51.220Z,18.67
2023-02-11T15:32:25.736Z,18.27
2023-02-11T15:34:54.199Z,17.90
2023-02-11T15:37:31.552Z,17.30
2023-02-11T15:40:11.378Z,18.10
2023-02-11T15:42:52.092Z,17.73
2023-02-11T15:45:28.679Z,17.60
2023-02-11T15:48:12.805Z,17.13
2023-02-11T15:50:41.322Z,16.97
2023-02-11T15:53:25.969Z,17.27
2023-02-11T15:55:58.052Z,17.90
2023-02-11T15:58:24.756Z,16.47
2023-02-11T16:00:59.602Z,17.77
2023-02-11T16:03:32.420Z,18.87
2023-02-11T16:06:34.711Z,16.70
2023-02-11T16:09:21.979Z,16.90
2023-02-11T16:11:48.490Z,17.57
2023-02-11T16:14:27.329Z,17.17
2023-02-11T16:16:55.564Z,16.30
2023-02-11T16:19:25.575Z,17.60
2023-02-11T16:21:55.626Z,18.03
2023-02-11T16:24:28.052Z,18.30
2023-02-11T16:27:16.972Z,18.43
2023-02-11T16:29:47.380Z,17.40
2023-02-11T16:32:18.987Z,17.50
2023-02-11T16:34:45.625Z,17.33
2023-02-11T16:37:12.392Z,17.73
2023-02-11T16:39:39.052Z,22.30
2023-02-11T16:42:07.690Z,22.20
2023-02-11T16:44:34.910Z,23.57
2023-02-11T16:47:03.365Z,20.67
2023-02-11T16:49:34.442Z,20.70
2023-02-11T16:52:02.609Z,22.63
2023-02-11T16:54:30.254Z,21.13
2023-02-11T16:56:57.627Z,21.07
2023-02-11T16:59:24.253Z,20.77
2023-02-11T17:01:53.638Z,20.83
2023-02-11T17:04:25.430Z,20.53
2023-02-11T17:06:52.212Z,19.17
2023-02-11T17:09:24.549Z,19.90
2023-02-11T17:11:51.600Z,22.83
2023-02-11T17:14:19.046Z,22.40
2023-02-11T17:16:47.614Z,22.83
2023-02-11T17:19:17.000Z,23.00
2023-02-11T17:21:45.123Z,23.93
2023-02-11T17:24:12.487Z,23.90
2023-02-11T17:26:39.260Z,21.77
2023-02-11T17:29:10.795Z,31.97
2023-02-11T17:31:38.559Z,26.43
2023-02-11T17:34:05.402Z,22.60
2023-02-11T17:36:33.278Z,22.40
2023-02-11T17:39:01.223Z,23.03
2023-02-11T17:41:28.525Z,21.43
2023-02-11T17:43:58.133Z,23.43
2023-02-11T17:46:24.775Z,25.17
2023-02-11T17:48:53.237Z,26.23
2023-02-11T17:51:34.254Z,18.27
2023-02-11T17:54:03.838Z,19.37
2023-02-11T17:56:33.570Z,19.90
2023-02-11T17:59:02.297Z,20.97
2023-02-11T18:01:30.127Z,19.83
2023-02-11T18:03:56.740Z,20.60
2023-02-11T18:06:23.422Z,19.40
2023-02-11T18:08:50.087Z,25.53
2023-02-11T18:11:17.046Z,24.70
2023-02-11T18:13:45.326Z,20.87
2023-02-11T18:16:15.819Z,19.70
2023-02-11T18:18:45.988Z,19.00
2023-02-11T18:21:14.470Z,19.17
2023-02-11T18:23:41.085Z,19.03
2023-02-11T18:26:08.790Z,19.63
2023-02-11T18:28:36.434Z,21.00
2023-02-11T18:31:04.095Z,21.20
2023-02-11T18:33:30.980Z,20.60
2023-02-11T18:35:57.539Z,20.63
2023-02-11T18:38:24.762Z,20.93
2023-02-11T18:40:52.424Z,20.63
2023-02-11T18:43:20.466Z,20.90
2023-02-11T18:45:49.241Z,22.70
2023-02-11T18:48:17.942Z,26.27
2023-02-11T18:50:46.017Z,36.13
2023-02-11T18:53:15.659Z,38.63
2023-02-11T18:55:44.709Z,31.87
2023-02-11T18:58:11.972Z,30.23
2023-02-11T19:00:41.324Z,33.20
2023-02-11T19:03:07.976Z,33.20
2023-02-11T19:05:48.564Z,28.23
2023-02-11T19:08:17.014Z,23.20
2023-02-11T19:10:46.564Z,22.47
2023-02-11T19:13:14.035Z,19.70
2023-02-11T19:15:42.140Z,19.83
2023-02-11T19:18:08.832Z,20.83
2023-02-11T19:20:35.433Z,19.40
2023-02-11T19:23:02.055Z,20.50
2023-02-11T19:25:28.634Z,19.20
2023-02-11T19:27:55.221Z,20.33
2023-02-11T19:30:22.014Z,19.80
2023-02-11T19:32:52.493Z,20.90
2023-02-11T19:35:22.188Z,21.50
2023-02-11T19:37:48.911Z,30.00
2023-02-11T19:40:16.555Z,28.70
2023-02-11T19:42:43.252Z,28.10
2023-02-11T19:45:10.141Z,27.10
2023-02-11T19:47:36.845Z,26.57
2023-02-11T19:50:05.438Z,21.13
2023-02-11T19:52:32.203Z,23.10
2023-02-11T19:54:59.426Z,21.63
2023-02-11T19:57:26.126Z,24.30
2023-02-11T19:59:54.847Z,22.47
2023-02-11T20:02:21.589Z,20.57
2023-02-11T20:04:48.363Z,19.77
2023-02-11T20:07:15.104Z,21.47
2023-02-11T20:09:42.621Z,21.00
2023-02-11T20:12:10.060Z,20.97
2023-02-11T20:14:36.749Z,21.70
2023-02-11T20:17:03.327Z,22.10
2023-02-11T20:19:30.732Z,21.50
2023-02-11T20:21:57.551Z,20.07
2023-02-11T20:24:25.018Z,21.70
2023-02-11T20:26:55.387Z,21.03
2023-02-11T20:29:23.307Z,20.97
2023-02-11T20:31:50.258Z,22.40
2023-02-11T20:34:17.875Z,23.30
2023-02-11T20:36:51.544Z,23.23
2023-02-11T20:39:21.750Z,23.37
2023-02-11T20:41:49.016Z,22.97
2023-02-11T20:44:15.773Z,23.27
2023-02-11T20:46:46.503Z,22.40
2023-02-11T20:49:15.669Z,21.57
2023-02-11T20:51:43.363Z,22.63
2023-02-11T20:54:16.222Z,20.83
2023-02-11T20:56:44.979Z,22.93
2023-02-11T20:59:14.338Z,26.20
2023-02-11T21:01:45.545Z,29.47
2023-02-11T21:04:20.536Z,30.13
2023-02-11T21:06:52.248Z,24.40
2023-02-11T21:09:21.978Z,27.63
2023-02-11T21:11:51.745Z,27.90
2023-02-11T21:14:19.520Z,25.57
2023-02-11T21:16:47.343Z,25.03
2023-02-11T21:19:14.584Z,26.50
2023-02-11T21:21:42.044Z,26.40
2023-02-11T21:24:10.507Z,25.40
2023-02-11T21:26:38.033Z,27.23
2023-02-11T21:29:07.747Z,23.83
2023-02-11T21:31:35.702Z,22.97
2023-02-11T21:34:02.815Z,21.63
2023-02-11T21:36:30.802Z,20.60
2023-02-11T21:38:58.417Z,19.33
2023-02-11T21:41:25.215Z,19.10
2023-02-11T21:43:52.430Z,21.03
2023-02-11T21:46:20.541Z,20.77
2023-02-11T21:48:47.611Z,18.30
2023-02-11T21:51:17.001Z,19.37
2023-02-11T21:53:43.669Z,20.30
2023-02-11T21:56:13.671Z,19.77
2023-02-11T21:58:40.665Z,20.93
2023-02-11T22:01:11.602Z,23.30
2023-02-11T22:03:38.521Z,20.20
2023-02-11T22:06:17.999Z,20.83
2023-02-11T22:08:44.952Z,25.00
2023-02-11T22:11:13.672Z,19.80
2023-02-11T22:13:41.424Z,20.70
2023-02-11T22:16:11.473Z,21.23
2023-02-11T22:18:39.154Z,20.30
2023-02-11T22:21:08.665Z,19.03
2023-02-11T22:23:36.697Z,21.20
2023-02-11T22:26:09.728Z,21.13
2023-02-11T22:28:39.106Z,22.67
2023-02-11T22:31:06.180Z,22.17
2023-02-11T22:33:33.728Z,21.73
2023-02-11T22:36:12.435Z,23.03
2023-02-11T22:38:39.314Z,24.77
2023-02-11T22:41:09.644Z,25.10
2023-02-11T22:43:37.187Z,21.83
2023-02-11T22:46:06.076Z,22.40
2023-02-11T22:48:34.595Z,22.17
2023-02-11T22:51:25.002Z,22.40
2023-02-11T22:53:53.239Z,21.73
2023-02-11T22:56:21.300Z,21.10
2023-02-11T22:58:48.738Z,21.13
2023-02-11T23:01:16.422Z,19.93
2023-02-11T23:03:43.610Z,20.40
2023-02-11T23:06:11.478Z,19.90
2023-02-11T23:08:40.303Z,17.57
2023-02-11T23:11:10.952Z,19.73
2023-02-11T23:13:40.264Z,20.27
2023-02-11T23:16:10.400Z,20.87
2023-02-11T23:18:39.032Z,23.00
2023-02-11T23:21:13.090Z,20.87
2023-02-11T23:23:40.225Z,18.87
2023-02-11T23:26:11.119Z,19.17
2023-02-11T23:28:38.933Z,16.67
2023-02-11T23:31:26.258Z,17.37
2023-02-11T23:33:53.436Z,15.87
2023-02-11T23:36:21.983Z,15.57
2023-02-11T23:38:49.430Z,15.13
2023-02-11T23:41:17.121Z,18.90
2023-02-11T23:43:44.216Z,17.57
2023-02-11T23:46:11.055Z,18.23
2023-02-11T23:48:38.673Z,17.53
2023-02-11T23:51:06.493Z,15.80
2023-02-11T23:53:33.127Z,17.03
2023-02-11T23:55:59.971Z,18.23
2023-02-11T23:58:26.605Z,18.70
